KBIL/BIL METAR and TAF weather

Enter ICAO airport designator
Station Type Date Time Source
KBIL METAR 2019/05/19 19:53 UTC NOAA

KBIL 191953Z 07011KT 10SM BKN025 OVC032 07/00 A3002 RMK AO2 SLP179 T00670000 $


Station Type Date Time Source
KBIL Decoded METAR 2019/05/19 19:53 UTC NOAA

LOGAN INTERNATIONAL AIRPORT, MT, United States (KBIL) 45-49N 108-33W 1091M
May 19, 2019 - 03:53 PM EDT / 2019.05.19 1953 UTC
Wind: from the ENE (070 degrees) at 13 MPH (11 KT):0
Visibility: 10 mile(s):0
Sky conditions: overcast
Temperature: 44.1 F (6.7 C)
Dew Point: 32.0 F (0.0 C)
Relative Humidity: 62%
Pressure (altimeter): 30.02 in. Hg (1016 hPa)
ob: KBIL 191953Z 07011KT 10SM BKN025 OVC032 07/00 A3002 RMK AO2 SLP179 T00670000
cycle: 20

Station Type Date Time Source
KBIL TAF 2019/05/19 18:36 UTC NOAA

TAF KBIL 191734Z 1918/2018 06007KT P6SM OVC030
FM201200 08009KT P6SM VCSH BKN020

Example: see airport list